createdAt,value
2022-08-24T00:00:13.957Z,3.03
2022-08-24T00:02:40.465Z,2.63
2022-08-24T00:05:11.558Z,3.30
2022-08-24T00:07:40.931Z,2.88
2022-08-24T00:10:08.593Z,2.92
2022-08-24T00:12:35.027Z,2.88
2022-08-24T00:15:01.736Z,2.78
2022-08-24T00:17:28.142Z,2.70
2022-08-24T00:19:54.583Z,2.90
2022-08-24T00:22:21.097Z,3.08
2022-08-24T00:24:47.518Z,3.25
2022-08-24T00:27:13.911Z,2.88
2022-08-24T00:29:40.325Z,2.80
2022-08-24T00:32:06.802Z,3.00
2022-08-24T00:34:34.305Z,3.03
2022-08-24T00:37:00.686Z,2.72
2022-08-24T00:39:27.080Z,2.42
2022-08-24T00:41:53.649Z,2.67
2022-08-24T00:44:22.694Z,2.72
2022-08-24T00:47:00.104Z,3.00
2022-08-24T00:49:26.495Z,2.63
2022-08-24T00:52:13.124Z,2.40
2022-08-24T00:54:46.057Z,2.80
2022-08-24T00:57:16.338Z,2.60
2022-08-24T00:59:44.642Z,2.50
2022-08-24T01:02:18.943Z,2.25
2022-08-24T01:04:52.061Z,2.80
2022-08-24T01:07:18.629Z,3.35
2022-08-24T01:09:46.357Z,3.20
2022-08-24T01:12:12.811Z,2.88
2022-08-24T01:14:39.352Z,2.67
2022-08-24T01:17:24.952Z,2.90
2022-08-24T01:19:54.403Z,2.80
2022-08-24T01:22:39.280Z,2.72
2022-08-24T01:25:06.258Z,2.42
2022-08-24T01:27:33.886Z,3.03
2022-08-24T01:30:01.794Z,2.50
2022-08-24T01:32:28.864Z,3.03
2022-08-24T01:34:56.271Z,3.22
2022-08-24T01:37:23.056Z,2.83
2022-08-24T01:39:50.318Z,2.58
2022-08-24T01:42:17.041Z,2.67
2022-08-24T01:44:44.194Z,3.22
2022-08-24T01:47:11.846Z,2.97
2022-08-24T01:49:41.628Z,3.00
2022-08-24T01:52:09.117Z,3.05
2022-08-24T01:54:35.759Z,2.40
2022-08-24T01:57:02.220Z,2.78
2022-08-24T01:59:29.049Z,2.78
2022-08-24T02:01:58.157Z,2.55
2022-08-24T02:04:24.572Z,2.70
2022-08-24T02:06:51.046Z,2.80
2022-08-24T02:09:17.616Z,3.05
2022-08-24T02:11:44.254Z,3.10
2022-08-24T02:14:10.644Z,2.30
2022-08-24T02:16:39.992Z,2.40
2022-08-24T02:19:06.443Z,2.60
2022-08-24T02:21:32.932Z,2.95
2022-08-24T02:23:59.996Z,2.63
2022-08-24T02:26:31.435Z,2.80
2022-08-24T02:28:58.219Z,2.85
2022-08-24T02:31:29.954Z,2.63
2022-08-24T02:33:56.618Z,2.70
2022-08-24T02:36:25.271Z,2.40
2022-08-24T02:38:55.122Z,2.65
2022-08-24T02:41:22.344Z,2.60
2022-08-24T02:43:48.761Z,2.75
2022-08-24T02:46:19.038Z,2.70
2022-08-24T02:48:45.613Z,2.60
2022-08-24T02:51:18.398Z,3.20
2022-08-24T02:53:44.807Z,2.70
2022-08-24T02:56:11.809Z,2.60
2022-08-24T02:58:38.653Z,2.97
2022-08-24T03:01:05.177Z,3.50
2022-08-24T03:03:44.472Z,2.47
2022-08-24T03:06:11.206Z,2.75
2022-08-24T03:08:37.998Z,2.42
2022-08-24T03:11:05.513Z,2.70
2022-08-24T03:13:32.328Z,2.60
2022-08-24T03:15:59.371Z,2.92
2022-08-24T03:18:27.013Z,2.92
2022-08-24T03:20:54.526Z,2.70
2022-08-24T03:23:21.295Z,2.80
2022-08-24T03:25:48.380Z,2.50
2022-08-24T03:28:14.806Z,2.72
2022-08-24T03:30:43.633Z,2.75
2022-08-24T03:33:16.097Z,2.35
2022-08-24T03:35:42.554Z,2.40
2022-08-24T03:38:09.332Z,2.63
2022-08-24T03:40:35.745Z,2.35
2022-08-24T03:43:02.844Z,2.80
2022-08-24T03:45:29.364Z,2.70
2022-08-24T03:47:56.027Z,2.50
2022-08-24T03:50:22.997Z,2.70
2022-08-24T03:52:49.519Z,2.58
2022-08-24T03:55:16.198Z,2.50
2022-08-24T03:57:42.820Z,2.60
2022-08-24T04:00:10.681Z,2.60
2022-08-24T04:02:37.979Z,2.72
2022-08-24T04:05:07.680Z,2.13
2022-08-24T04:07:34.196Z,2.55
2022-08-24T04:10:00.807Z,2.85
2022-08-24T04:12:27.586Z,2.67
2022-08-24T04:14:55.948Z,2.63
2022-08-24T04:17:22.413Z,2.55
2022-08-24T04:19:58.233Z,2.75
2022-08-24T04:22:25.741Z,2.67
2022-08-24T04:24:52.280Z,2.63
2022-08-24T04:27:18.969Z,2.40
2022-08-24T04:29:45.384Z,2.55
2022-08-24T04:32:11.820Z,3.00
2022-08-24T04:34:38.455Z,2.70
2022-08-24T04:37:08.521Z,2.58
2022-08-24T04:39:37.348Z,2.53
2022-08-24T04:42:06.148Z,2.50
2022-08-24T04:44:32.529Z,2.55
2022-08-24T04:46:59.255Z,2.70
2022-08-24T04:49:25.656Z,2.45
2022-08-24T04:51:52.196Z,2.97
2022-08-24T04:54:19.102Z,2.85
2022-08-24T04:56:45.492Z,2.75
2022-08-24T04:59:11.913Z,2.88
2022-08-24T05:01:41.010Z,2.75
2022-08-24T05:04:07.392Z,2.58
2022-08-24T05:06:34.109Z,2.85
2022-08-24T05:09:01.462Z,3.17
2022-08-24T05:11:28.497Z,2.35
2022-08-24T05:13:56.016Z,2.50
2022-08-24T05:16:23.268Z,2.42
2022-08-24T05:18:50.348Z,2.47
2022-08-24T05:21:18.174Z,2.83
2022-08-24T05:23:46.098Z,2.85
2022-08-24T05:26:14.767Z,2.55
2022-08-24T05:28:41.841Z,2.70
2022-08-24T05:31:12.571Z,2.70
2022-08-24T05:33:39.198Z,2.50
2022-08-24T05:36:06.068Z,2.75
2022-08-24T05:38:33.331Z,3.22
2022-08-24T05:41:04.137Z,2.50
2022-08-24T05:43:34.057Z,2.72
2022-08-24T05:46:00.463Z,2.20
2022-08-24T05:48:27.032Z,2.58
2022-08-24T05:50:54.313Z,2.47
2022-08-24T05:53:20.975Z,2.53
2022-08-24T05:55:47.437Z,2.58
2022-08-24T05:58:15.314Z,2.35
2022-08-24T06:00:53.832Z,2.35
2022-08-24T06:03:20.201Z,2.90
2022-08-24T06:05:48.889Z,2.50
2022-08-24T06:08:15.707Z,2.92
2022-08-24T06:10:47.678Z,2.38
2022-08-24T06:13:14.337Z,2.40
2022-08-24T06:15:42.691Z,2.70
2022-08-24T06:18:10.333Z,2.42
2022-08-24T06:20:41.318Z,2.50
2022-08-24T06:25:52.510Z,2.63
2022-08-24T06:28:19.169Z,2.15
2022-08-24T06:30:48.595Z,2.35
2022-08-24T06:33:14.998Z,2.50
2022-08-24T06:35:44.844Z,2.20
2022-08-24T06:38:13.287Z,2.90
2022-08-24T06:40:39.696Z,2.00
2022-08-24T06:43:06.248Z,2.00
2022-08-24T06:45:32.864Z,1.98
2022-08-24T06:47:59.232Z,2.00
2022-08-24T06:50:25.647Z,2.00
2022-08-24T06:52:52.089Z,1.92
2022-08-24T06:55:18.523Z,1.60
2022-08-24T06:57:47.951Z,1.30
2022-08-24T07:00:17.341Z,1.98
2022-08-24T07:02:43.860Z,1.67
2022-08-24T07:05:10.382Z,1.85
2022-08-24T07:07:36.876Z,1.65
2022-08-24T07:10:03.716Z,1.60
2022-08-24T07:12:30.192Z,1.13
2022-08-24T07:14:56.652Z,1.80
2022-08-24T07:17:23.155Z,1.30
2022-08-24T07:19:50.182Z,1.10
2022-08-24T07:22:19.281Z,1.45
2022-08-24T07:24:46.645Z,1.33
2022-08-24T07:27:13.945Z,1.05
2022-08-24T07:29:50.732Z,1.50
2022-08-24T07:32:23.346Z,1.42
2022-08-24T07:34:50.240Z,1.60
2022-08-24T07:37:16.834Z,1.30
2022-08-24T07:39:43.221Z,0.95
2022-08-24T07:42:13.742Z,1.30
2022-08-24T07:44:42.558Z,0.95
2022-08-24T07:47:34.209Z,1.90
2022-08-24T07:49:55.345Z,1.10
2022-08-24T07:52:24.850Z,1.40
2022-08-24T07:54:51.267Z,1.40
2022-08-24T07:57:17.775Z,1.30
2022-08-24T07:59:44.217Z,1.30
2022-08-24T08:02:11.695Z,1.40
2022-08-24T08:04:38.534Z,1.42
2022-08-24T08:07:07.352Z,1.33
2022-08-24T08:09:36.147Z,1.50
2022-08-24T08:12:02.767Z,1.60
2022-08-24T08:14:29.183Z,1.23
2022-08-24T08:16:55.820Z,0.98
2022-08-24T08:19:22.219Z,1.13
2022-08-24T08:22:08.260Z,1.23
2022-08-24T08:24:35.365Z,1.45
2022-08-24T08:27:01.780Z,1.40
2022-08-24T08:29:28.433Z,1.40
2022-08-24T08:31:55.891Z,1.50
2022-08-24T08:34:22.405Z,1.25
2022-08-24T08:36:49.024Z,1.20
2022-08-24T08:39:16.264Z,1.60
2022-08-24T08:42:02.084Z,1.17
2022-08-24T08:44:57.925Z,1.02
2022-08-24T08:47:47.329Z,1.33
2022-08-24T08:50:16.854Z,1.02
2022-08-24T08:52:52.633Z,1.48
2022-08-24T08:55:37.881Z,1.10
2022-08-24T08:58:18.234Z,1.30
2022-08-24T09:00:44.747Z,1.20
2022-08-24T09:03:27.082Z,1.45
2022-08-24T09:06:16.922Z,1.00
2022-08-24T09:08:52.169Z,1.00
2022-08-24T09:11:18.755Z,1.10
2022-08-24T09:14:04.623Z,1.30
2022-08-24T09:16:43.383Z,1.30
2022-08-24T09:19:31.642Z,1.10
2022-08-24T09:22:13.052Z,1.02
2022-08-24T09:27:14.745Z,1.23
2022-08-24T09:29:44.909Z,1.40
2022-08-24T09:32:13.027Z,1.30
2022-08-24T09:35:06.883Z,2.65
2022-08-24T09:37:41.605Z,1.73
2022-08-24T09:40:18.702Z,1.55
2022-08-24T09:42:48.018Z,1.50
2022-08-24T09:45:20.476Z,1.13
2022-08-24T09:48:05.606Z,1.10
2022-08-24T09:50:50.784Z,1.33
2022-08-24T09:53:36.854Z,0.90
2022-08-24T09:56:03.215Z,1.48
2022-08-24T09:58:35.565Z,1.35
2022-08-24T10:01:02.381Z,1.30
2022-08-24T10:03:47.682Z,1.13
2022-08-24T10:06:18.136Z,1.20
2022-08-24T10:08:44.624Z,1.60
2022-08-24T10:11:29.590Z,1.27
2022-08-24T10:14:14.764Z,1.42
2022-08-24T10:16:44.350Z,1.30
2022-08-24T10:19:29.795Z,1.50
2022-08-24T10:22:02.238Z,1.40
2022-08-24T10:24:31.717Z,1.40
2022-08-24T10:27:13.412Z,1.05
2022-08-24T10:29:45.842Z,1.50
2022-08-24T10:32:15.403Z,1.30
2022-08-24T10:35:02.172Z,1.25
2022-08-24T10:37:42.491Z,1.40
2022-08-24T10:40:10.258Z,1.27
2022-08-24T10:42:58.659Z,1.58
2022-08-24T10:45:57.588Z,1.40
2022-08-24T10:48:30.084Z,1.48
2022-08-24T10:51:09.891Z,1.48
2022-08-24T10:53:36.568Z,1.40
2022-08-24T10:56:06.119Z,1.65
2022-08-24T10:58:37.552Z,1.50
2022-08-24T11:01:30.451Z,1.40
2022-08-24T11:03:59.885Z,1.45
2022-08-24T11:06:28.734Z,1.30
2022-08-24T11:08:57.087Z,1.38
2022-08-24T11:11:25.979Z,1.70
2022-08-24T11:13:54.080Z,1.52
2022-08-24T11:16:25.854Z,1.40
2022-08-24T11:18:54.365Z,1.50
2022-08-24T11:21:34.923Z,1.48
2022-08-24T11:24:13.195Z,1.92
2022-08-24T11:26:53.838Z,1.85
2022-08-24T11:29:23.173Z,1.45
2022-08-24T11:31:52.721Z,1.38
2022-08-24T11:34:31.242Z,1.35
2022-08-24T11:36:57.932Z,1.55
2022-08-24T11:39:27.293Z,1.40
2022-08-24T11:41:56.858Z,1.33
2022-08-24T11:44:49.946Z,1.40
2022-08-24T11:47:33.846Z,1.17
2022-08-24T11:50:06.417Z,1.50
2022-08-24T11:52:38.831Z,1.73
2022-08-24T11:55:22.373Z,1.38
2022-08-24T11:58:11.093Z,1.60
2022-08-24T12:00:45.467Z,1.60
2022-08-24T12:03:18.092Z,1.67
2022-08-24T12:06:03.366Z,1.70
2022-08-24T12:08:42.751Z,1.90
2022-08-24T12:11:33.320Z,1.37
2022-08-24T12:14:08.952Z,1.75
2022-08-24T12:16:39.294Z,1.70
2022-08-24T12:19:08.701Z,1.80
2022-08-24T12:21:37.798Z,2.00
2022-08-24T12:24:09.250Z,1.87
2022-08-24T12:26:37.750Z,1.80
2022-08-24T12:29:04.096Z,2.03
2022-08-24T12:31:38.164Z,1.75
2022-08-24T12:34:09.762Z,1.50
2022-08-24T12:36:39.759Z,1.80
2022-08-24T12:41:33.969Z,2.05
2022-08-24T12:44:03.856Z,2.22
2022-08-24T12:46:31.277Z,2.20
2022-08-24T12:49:02.685Z,1.73
2022-08-24T12:51:37.825Z,1.70
2022-08-24T12:54:13.177Z,1.77
2022-08-24T12:56:51.787Z,1.55
2022-08-24T12:59:21.200Z,2.20
2022-08-24T13:01:56.604Z,1.77
2022-08-24T13:04:37.835Z,2.03
2022-08-24T13:07:27.376Z,2.05
2022-08-24T13:09:53.914Z,2.00
2022-08-24T13:12:41.827Z,2.30
2022-08-24T13:15:28.730Z,1.75
2022-08-24T13:18:02.942Z,1.80
2022-08-24T13:20:32.666Z,2.42
2022-08-24T13:23:02.056Z,1.90
2022-08-24T13:25:44.740Z,2.05
2022-08-24T13:28:31.386Z,2.53
2022-08-24T13:31:01.605Z,2.13
2022-08-24T13:33:57.552Z,2.00
2022-08-24T13:36:42.969Z,1.92
2022-08-24T13:39:12.250Z,2.17
2022-08-24T13:42:08.720Z,2.15
2022-08-24T13:44:44.392Z,2.05
2022-08-24T13:47:10.846Z,2.05
2022-08-24T13:49:46.260Z,2.10
2022-08-24T13:52:12.994Z,1.83
2022-08-24T13:54:45.229Z,1.90
2022-08-24T13:57:14.674Z,2.15
2022-08-24T13:59:42.386Z,1.67
2022-08-24T14:02:25.798Z,1.90
2022-08-24T14:05:01.611Z,1.85
2022-08-24T14:07:31.185Z,1.98
2022-08-24T14:12:30.374Z,2.08
2022-08-24T14:15:09.011Z,2.30
2022-08-24T14:17:53.890Z,1.70
2022-08-24T14:20:40.704Z,2.00
2022-08-24T14:23:08.301Z,2.20
2022-08-24T14:25:35.515Z,2.08
2022-08-24T14:28:05.072Z,1.90
2022-08-24T14:30:33.818Z,1.90
2022-08-24T14:33:00.171Z,2.10
2022-08-24T14:35:26.571Z,1.60
2022-08-24T14:37:59.905Z,1.48
2022-08-24T14:40:34.869Z,2.20
2022-08-24T14:43:17.417Z,2.05
2022-08-24T14:45:51.883Z,1.88
2022-08-24T14:48:38.325Z,1.70
2022-08-24T14:51:04.727Z,1.73
2022-08-24T14:54:00.513Z,1.80
2022-08-24T14:56:45.698Z,1.60
2022-08-24T14:59:21.340Z,1.85
2022-08-24T15:01:49.554Z,1.40
2022-08-24T15:04:38.526Z,1.50
2022-08-24T15:07:23.861Z,1.52
2022-08-24T15:09:50.501Z,2.10
2022-08-24T15:12:35.850Z,2.05
2022-08-24T15:15:07.147Z,1.60
2022-08-24T15:17:51.346Z,1.73
2022-08-24T15:20:17.996Z,1.70
2022-08-24T15:22:46.572Z,1.75
2022-08-24T15:25:39.399Z,1.98
2022-08-24T15:28:08.835Z,1.55
2022-08-24T15:30:36.626Z,1.52
2022-08-24T15:33:11.240Z,1.98
2022-08-24T15:35:40.957Z,2.28
2022-08-24T15:38:18.030Z,1.85
2022-08-24T15:40:46.166Z,1.60
2022-08-24T15:43:13.077Z,1.90
2022-08-24T15:45:51.308Z,1.60
2022-08-24T15:48:19.492Z,2.00
2022-08-24T15:50:47.461Z,2.00
2022-08-24T15:53:33.275Z,2.10
2022-08-24T15:56:12.896Z,1.77
2022-08-24T15:58:39.328Z,1.92
2022-08-24T16:01:30.696Z,2.33
2022-08-24T16:03:59.170Z,1.70
2022-08-24T16:06:34.591Z,1.85
2022-08-24T16:09:02.501Z,2.08
2022-08-24T16:11:44.778Z,1.85
2022-08-24T16:14:26.321Z,1.88
2022-08-24T16:16:54.489Z,1.77
2022-08-24T16:19:25.584Z,1.85
2022-08-24T16:22:03.221Z,1.77
2022-08-24T16:24:31.542Z,1.50
2022-08-24T16:27:07.090Z,1.63
2022-08-24T16:29:37.013Z,1.60
2022-08-24T16:32:10.975Z,1.63
2022-08-24T16:35:16.078Z,1.63
2022-08-24T16:37:42.589Z,1.50
2022-08-24T16:40:09.427Z,1.67
2022-08-24T16:42:36.717Z,1.42
2022-08-24T16:45:04.893Z,1.85
2022-08-24T16:47:31.282Z,1.63
2022-08-24T16:49:57.823Z,2.05
2022-08-24T16:52:24.375Z,1.55
2022-08-24T16:54:53.862Z,1.77
2022-08-24T16:57:22.735Z,1.42
2022-08-24T16:59:49.822Z,1.80
2022-08-24T17:02:17.420Z,1.65
2022-08-24T17:04:44.254Z,1.85
2022-08-24T17:07:12.092Z,1.50
2022-08-24T17:09:40.557Z,1.52
2022-08-24T17:12:08.921Z,2.13
2022-08-24T17:14:37.618Z,1.63
2022-08-24T17:17:05.065Z,1.70
2022-08-24T17:19:31.825Z,1.52
2022-08-24T17:21:59.425Z,1.80
2022-08-24T17:24:25.934Z,1.90
2022-08-24T17:26:53.703Z,1.85
2022-08-24T17:29:20.394Z,1.85
2022-08-24T17:31:49.764Z,1.70
2022-08-24T17:34:16.615Z,1.70
2022-08-24T17:36:45.923Z,1.60
2022-08-24T17:39:16.588Z,1.73
2022-08-24T17:44:10.589Z,1.63
2022-08-24T17:46:37.311Z,2.15
2022-08-24T17:49:03.964Z,1.35
2022-08-24T17:51:30.575Z,1.75
2022-08-24T17:53:57.151Z,1.70
2022-08-24T17:56:29.732Z,1.98
2022-08-24T17:59:17.842Z,2.22
2022-08-24T18:01:44.546Z,2.35
2022-08-24T18:04:11.025Z,2.20
2022-08-24T18:06:37.633Z,1.65
2022-08-24T18:09:06.973Z,1.95
2022-08-24T18:11:33.743Z,1.60
2022-08-24T18:14:01.649Z,2.00
2022-08-24T18:16:28.499Z,1.55
2022-08-24T18:18:55.587Z,1.70
2022-08-24T18:21:22.548Z,1.30
2022-08-24T18:23:50.167Z,1.50
2022-08-24T18:26:20.423Z,1.42
2022-08-24T18:28:47.209Z,1.65
2022-08-24T18:31:14.123Z,1.35
2022-08-24T18:33:41.830Z,1.73
2022-08-24T18:36:08.254Z,1.50
2022-08-24T18:38:35.236Z,1.63
2022-08-24T18:41:01.891Z,1.48
2022-08-24T18:43:28.680Z,1.63
2022-08-24T18:45:55.162Z,1.30
2022-08-24T18:48:22.354Z,1.60
2022-08-24T18:50:49.404Z,1.30
2022-08-24T18:53:17.077Z,1.30
2022-08-24T18:55:46.110Z,1.40
2022-08-24T18:58:12.677Z,1.58
2022-08-24T19:00:39.958Z,1.50
2022-08-24T19:03:07.196Z,1.30
2022-08-24T19:05:34.132Z,1.80
2022-08-24T19:08:00.521Z,1.45
2022-08-24T19:10:28.566Z,1.80
2022-08-24T19:12:56.639Z,1.52
2022-08-24T19:15:29.356Z,1.40
2022-08-24T19:18:05.886Z,1.30
2022-08-24T19:20:33.135Z,1.20
2022-08-24T19:23:05.010Z,2.33
2022-08-24T19:25:31.642Z,2.22
2022-08-24T19:28:01.122Z,1.60
2022-08-24T19:30:28.090Z,1.55
2022-08-24T19:32:58.339Z,1.83
2022-08-24T19:35:24.725Z,1.30
2022-08-24T19:37:51.125Z,1.40
2022-08-24T19:40:17.668Z,1.23
2022-08-24T19:42:44.302Z,1.50
2022-08-24T19:45:31.740Z,1.30
2022-08-24T19:47:58.103Z,1.40
2022-08-24T19:50:28.312Z,1.65
2022-08-24T19:52:57.523Z,1.60
2022-08-24T19:55:23.985Z,1.65
2022-08-24T19:57:54.359Z,1.60
2022-08-24T20:00:23.377Z,1.42
2022-08-24T20:02:50.661Z,1.40
2022-08-24T20:05:18.170Z,2.20
2022-08-24T20:07:45.165Z,1.85
2022-08-24T20:10:13.097Z,1.55
2022-08-24T20:12:39.993Z,1.67
2022-08-24T20:15:06.579Z,1.55
2022-08-24T20:17:33.849Z,1.75
2022-08-24T20:20:00.351Z,2.45
2022-08-24T20:22:26.932Z,1.58
2022-08-24T20:24:54.717Z,1.60
2022-08-24T20:27:22.790Z,1.80
2022-08-24T20:29:49.403Z,1.70
2022-08-24T20:32:15.829Z,1.80
2022-08-24T20:34:42.232Z,1.83
2022-08-24T20:37:08.993Z,1.88
2022-08-24T20:39:38.594Z,1.67
2022-08-24T20:42:05.043Z,1.77
2022-08-24T20:44:31.437Z,2.42
2022-08-24T20:46:57.875Z,1.95
2022-08-24T20:49:26.779Z,1.65
2022-08-24T20:51:53.421Z,2.10
2022-08-24T20:54:19.780Z,1.90
2022-08-24T20:56:49.416Z,1.52
2022-08-24T20:59:15.891Z,1.70
2022-08-24T21:01:45.819Z,1.63
2022-08-24T21:04:12.357Z,1.65
2022-08-24T21:06:42.427Z,1.80
2022-08-24T21:09:14.012Z,1.80
2022-08-24T21:11:41.205Z,1.90
2022-08-24T21:14:08.141Z,1.50
2022-08-24T21:16:36.368Z,1.83
2022-08-24T21:19:03.339Z,1.85
2022-08-24T21:21:29.737Z,1.90
2022-08-24T21:23:57.482Z,1.77
2022-08-24T21:26:24.806Z,1.98
2022-08-24T21:28:52.165Z,1.63
2022-08-24T21:31:18.582Z,1.50
2022-08-24T21:34:03.910Z,1.73
2022-08-24T21:36:31.903Z,1.98
2022-08-24T21:38:58.645Z,1.52
2022-08-24T21:41:25.096Z,1.83
2022-08-24T21:43:51.623Z,2.17
2022-08-24T21:46:18.326Z,1.90
2022-08-24T21:48:44.992Z,2.20
2022-08-24T21:51:11.393Z,2.42
2022-08-24T21:53:37.802Z,1.58
2022-08-24T21:56:04.250Z,1.80
2022-08-24T21:58:30.658Z,2.08
2022-08-24T22:00:59.175Z,1.95
2022-08-24T22:03:26.343Z,1.90
2022-08-24T22:05:58.173Z,2.10
2022-08-24T22:08:26.069Z,1.88
2022-08-24T22:10:55.346Z,2.03
2022-08-24T22:13:21.716Z,1.67
2022-08-24T22:15:48.259Z,1.88
2022-08-24T22:18:14.682Z,2.50
2022-08-24T22:20:41.103Z,2.13
2022-08-24T22:23:07.513Z,2.58
2022-08-24T22:25:33.960Z,2.13
2022-08-24T22:28:00.929Z,2.72
2022-08-24T22:30:27.375Z,2.70
2022-08-24T22:32:53.824Z,2.13
2022-08-24T22:35:20.248Z,2.15
2022-08-24T22:37:46.659Z,2.17
2022-08-24T22:40:13.538Z,2.30
2022-08-24T22:42:42.607Z,2.40
2022-08-24T22:45:09.865Z,2.10
2022-08-24T22:47:37.244Z,2.10
2022-08-24T22:50:05.289Z,2.40
2022-08-24T22:52:31.711Z,2.42
2022-08-24T22:54:58.117Z,2.20
2022-08-24T22:57:24.953Z,2.30
2022-08-24T22:59:53.332Z,2.08
2022-08-24T23:02:19.817Z,2.60
2022-08-24T23:04:47.808Z,2.55
2022-08-24T23:07:14.321Z,2.20
2022-08-24T23:09:44.094Z,2.58
2022-08-24T23:14:38.037Z,2.42
2022-08-24T23:17:05.025Z,2.50
2022-08-24T23:19:50.443Z,2.50
2022-08-24T23:22:18.229Z,2.42
2022-08-24T23:24:46.201Z,2.42
2022-08-24T23:27:13.831Z,2.53
2022-08-24T23:29:40.669Z,2.83
2022-08-24T23:32:07.230Z,2.65
2022-08-24T23:34:34.680Z,3.47
2022-08-24T23:37:01.392Z,2.47
2022-08-24T23:39:27.894Z,2.10
2022-08-24T23:41:54.315Z,2.42
2022-08-24T23:44:22.628Z,2.53
2022-08-24T23:46:49.163Z,2.45
2022-08-24T23:49:17.130Z,3.17
2022-08-24T23:51:43.500Z,2.70
2022-08-24T23:54:10.515Z,2.65
2022-08-24T23:56:38.299Z,2.47
2022-08-24T23:59:09.494Z,2.75
